createdAt,value
2023-05-10T00:02:13.382Z,101452.14
2023-05-10T00:04:40.495Z,101448.38
2023-05-10T00:07:07.836Z,101451.02
2023-05-10T00:09:35.852Z,101448.11
2023-05-10T00:12:02.903Z,101449.00
2023-05-10T00:14:30.014Z,101445.17
2023-05-10T00:16:57.114Z,101448.77
2023-05-10T00:19:24.181Z,101444.42
2023-05-10T00:21:51.354Z,101446.33
2023-05-10T00:24:18.341Z,101445.80
2023-05-10T00:26:45.802Z,101445.95
2023-05-10T00:29:12.942Z,101439.34
2023-05-10T00:31:40.005Z,101441.77
2023-05-10T00:34:07.080Z,101443.33
2023-05-10T00:36:34.107Z,101442.11
2023-05-10T00:39:01.626Z,101440.73
2023-05-10T00:41:28.807Z,101439.17
2023-05-10T00:43:55.935Z,101441.98
2023-05-10T00:46:23.983Z,101439.23
2023-05-10T00:48:50.990Z,101438.59
2023-05-10T00:51:18.052Z,101437.77
2023-05-10T00:53:48.264Z,101434.86
2023-05-10T00:56:15.255Z,101434.03
2023-05-10T00:58:42.423Z,101436.32
2023-05-10T01:01:10.389Z,101440.02
2023-05-10T01:03:37.460Z,101440.23
2023-05-10T01:06:04.701Z,101444.09
2023-05-10T01:08:31.637Z,101442.38
2023-05-10T01:10:58.609Z,101441.20
2023-05-10T01:13:38.449Z,101444.55
2023-05-10T01:16:06.016Z,101443.20
2023-05-10T01:18:35.693Z,101443.23
2023-05-10T01:21:11.669Z,101442.24
2023-05-10T01:24:20.932Z,101439.88
2023-05-10T01:27:03.049Z,101441.36
2023-05-10T01:30:05.041Z,101440.21
2023-05-10T01:32:51.695Z,101439.42
2023-05-10T01:35:49.406Z,101439.30
2023-05-10T01:38:47.343Z,101435.71
2023-05-10T01:41:18.849Z,101431.77
2023-05-10T01:43:58.916Z,101433.39
2023-05-10T01:46:29.872Z,101430.84
2023-05-10T01:48:57.375Z,101432.79
2023-05-10T01:51:25.565Z,101431.43
2023-05-10T01:53:59.082Z,101433.71
2023-05-10T01:56:27.204Z,101429.40
2023-05-10T01:58:54.299Z,101428.41
2023-05-10T02:01:22.081Z,101424.95
2023-05-10T02:03:49.073Z,101424.81
2023-05-10T02:06:16.098Z,101426.73
2023-05-10T02:08:43.047Z,101424.27
2023-05-10T02:11:10.037Z,101423.21
2023-05-10T02:13:37.028Z,101426.67
2023-05-10T02:16:04.074Z,101431.33
2023-05-10T02:18:31.536Z,101429.05
2023-05-10T02:20:58.768Z,101430.27
2023-05-10T02:23:25.740Z,101430.59
2023-05-10T02:25:52.783Z,101432.30
2023-05-10T02:28:21.127Z,101432.30
2023-05-10T02:30:48.121Z,101431.39
2023-05-10T02:33:15.093Z,101431.52
2023-05-10T02:35:42.055Z,101431.82
2023-05-10T02:38:09.364Z,101432.13
2023-05-10T02:40:36.919Z,101431.56
2023-05-10T02:43:03.860Z,101433.25
2023-05-10T02:45:32.357Z,101438.24
2023-05-10T02:47:59.560Z,101434.02
2023-05-10T02:50:28.480Z,101438.83
2023-05-10T02:52:57.509Z,101436.16
2023-05-10T02:55:34.458Z,101434.48
2023-05-10T02:58:02.370Z,101437.64
2023-05-10T03:00:29.527Z,101434.23
2023-05-10T03:02:56.798Z,101431.65
2023-05-10T03:05:24.502Z,101432.53
2023-05-10T03:07:52.514Z,101433.04
2023-05-10T03:10:19.869Z,101432.13
2023-05-10T03:12:54.765Z,101436.52
2023-05-10T03:15:33.078Z,101437.19
2023-05-10T03:18:05.570Z,101438.03
2023-05-10T03:20:38.404Z,101435.59
2023-05-10T03:23:08.678Z,101437.00
2023-05-10T03:25:35.699Z,101438.73
2023-05-10T03:28:03.639Z,101441.17
2023-05-10T03:30:31.323Z,101441.16
2023-05-10T03:32:58.561Z,101443.24
2023-05-10T03:35:25.987Z,101443.70
2023-05-10T03:37:52.980Z,101444.46
2023-05-10T03:40:20.912Z,101445.61
2023-05-10T03:42:47.927Z,101447.95
2023-05-10T03:45:14.908Z,101442.60
2023-05-10T03:47:42.023Z,101440.60
2023-05-10T03:50:09.178Z,101439.27
2023-05-10T03:52:36.114Z,101441.58
2023-05-10T03:55:04.797Z,101434.50
2023-05-10T03:57:31.963Z,101435.09
2023-05-10T03:59:58.994Z,101441.19
2023-05-10T04:02:26.087Z,101440.83
2023-05-10T04:04:53.789Z,101443.98
2023-05-10T04:07:21.090Z,101444.09
2023-05-10T04:09:48.101Z,101445.33
2023-05-10T04:12:15.051Z,101444.02
2023-05-10T04:14:42.006Z,101440.11
2023-05-10T04:17:09.028Z,101441.21
2023-05-10T04:19:36.099Z,101443.02
2023-05-10T04:22:03.592Z,101439.43
2023-05-10T04:24:30.507Z,101441.54
2023-05-10T04:26:57.981Z,101442.61
2023-05-10T04:29:25.138Z,101442.32
2023-05-10T04:31:52.106Z,101445.76
2023-05-10T04:34:19.721Z,101449.31
2023-05-10T04:36:46.691Z,101444.15
2023-05-10T04:39:14.890Z,101442.77
2023-05-10T04:41:41.814Z,101446.27
2023-05-10T04:44:08.783Z,101440.70
2023-05-10T04:46:35.840Z,101443.13
2023-05-10T04:49:02.838Z,101436.12
2023-05-10T04:51:29.796Z,101437.19
2023-05-10T04:54:05.174Z,101436.55
2023-05-10T04:56:33.513Z,101439.11
2023-05-10T04:59:00.453Z,101443.89
2023-05-10T05:01:27.416Z,101442.48
2023-05-10T05:03:54.622Z,101443.91
2023-05-10T05:06:26.066Z,101446.00
2023-05-10T05:08:53.089Z,101444.45
2023-05-10T05:11:20.534Z,101447.41
2023-05-10T05:13:47.614Z,101449.55
2023-05-10T05:16:14.902Z,101448.23
2023-05-10T05:18:41.832Z,101448.06
2023-05-10T05:21:18.730Z,101444.09
2023-05-10T05:23:45.758Z,101444.48
2023-05-10T05:26:12.817Z,101442.08
2023-05-10T05:28:39.847Z,101441.77
2023-05-10T05:31:08.771Z,101439.98
2023-05-10T05:33:36.314Z,101437.14
2023-05-10T05:36:04.531Z,101438.49
2023-05-10T05:38:31.764Z,101438.14
2023-05-10T05:40:58.761Z,101436.90
2023-05-10T05:43:26.178Z,101440.41
2023-05-10T05:45:54.739Z,101442.42
2023-05-10T05:48:21.839Z,101444.84
2023-05-10T05:50:48.804Z,101445.58
2023-05-10T05:53:15.819Z,101445.14
2023-05-10T05:55:53.279Z,101443.81
2023-05-10T05:58:20.296Z,101442.19
2023-05-10T06:00:49.503Z,101447.10
2023-05-10T06:03:16.742Z,101440.67
2023-05-10T06:05:43.997Z,101440.77
2023-05-10T06:08:11.382Z,101436.75
2023-05-10T06:10:38.466Z,101438.73
2023-05-10T06:13:05.537Z,101436.61
2023-05-10T06:15:33.745Z,101438.16
2023-05-10T06:18:00.825Z,101439.52
2023-05-10T06:20:27.928Z,101438.98
2023-05-10T06:22:54.957Z,101435.23
2023-05-10T06:25:22.463Z,101433.73
2023-05-10T06:27:52.861Z,101438.59
2023-05-10T06:30:24.136Z,101432.81
2023-05-10T06:32:52.952Z,101436.95
2023-05-10T06:35:20.179Z,101429.86
2023-05-10T06:37:47.835Z,101431.14
2023-05-10T06:40:14.875Z,101429.74
2023-05-10T06:42:41.836Z,101426.59
2023-05-10T06:45:10.327Z,101428.73
2023-05-10T06:47:38.994Z,101430.10
2023-05-10T06:50:07.217Z,101428.73
2023-05-10T06:52:34.301Z,101432.23
2023-05-10T06:55:01.455Z,101428.41
2023-05-10T06:57:31.672Z,101435.10
2023-05-10T07:00:02.637Z,101434.06
2023-05-10T07:02:29.934Z,101431.58
2023-05-10T07:04:58.923Z,101430.60
2023-05-10T07:07:28.142Z,101432.90
2023-05-10T07:09:57.743Z,101431.52
2023-05-10T07:12:25.508Z,101428.02
2023-05-10T07:14:52.536Z,101422.80
2023-05-10T07:17:19.598Z,101422.27
2023-05-10T07:19:46.648Z,101419.14
2023-05-10T07:22:14.154Z,101424.48
2023-05-10T07:24:41.592Z,101424.73
2023-05-10T07:27:08.558Z,101420.23
2023-05-10T07:29:35.926Z,101424.84
2023-05-10T07:32:02.953Z,101426.77
2023-05-10T07:34:31.537Z,101420.59
2023-05-10T07:37:01.644Z,101425.02
2023-05-10T07:39:28.878Z,101424.19
2023-05-10T07:41:56.437Z,101424.66
2023-05-10T07:44:23.803Z,101420.02
2023-05-10T07:46:50.754Z,101418.39
2023-05-10T07:49:17.709Z,101417.86
2023-05-10T07:51:44.680Z,101416.96
2023-05-10T07:54:11.824Z,101415.45
2023-05-10T07:56:39.053Z,101408.30
2023-05-10T07:59:09.282Z,101405.13
2023-05-10T08:01:37.138Z,101411.80
2023-05-10T08:04:04.353Z,101415.48
2023-05-10T08:06:31.567Z,101415.64
2023-05-10T08:08:59.448Z,101414.78
2023-05-10T08:11:26.544Z,101410.05
2023-05-10T08:13:53.996Z,101409.97
2023-05-10T08:16:21.257Z,101408.40
2023-05-10T08:18:48.630Z,101407.09
2023-05-10T08:21:16.699Z,101402.77
2023-05-10T08:23:45.179Z,101402.18
2023-05-10T08:26:12.506Z,101399.14
2023-05-10T08:28:39.632Z,101397.35
2023-05-10T08:31:06.776Z,101390.60
2023-05-10T08:33:34.043Z,101392.44
2023-05-10T08:36:01.120Z,101400.16
2023-05-10T08:38:54.142Z,101405.27
2023-05-10T08:41:22.299Z,101404.30
2023-05-10T08:43:49.355Z,101407.48
2023-05-10T08:46:18.895Z,101406.10
2023-05-10T08:48:46.634Z,101407.29
2023-05-10T08:51:19.476Z,101410.66
2023-05-10T08:53:47.045Z,101410.39
2023-05-10T08:56:16.704Z,101412.23
2023-05-10T08:58:43.684Z,101409.39
2023-05-10T09:01:10.646Z,101407.50
2023-05-10T09:03:39.644Z,101411.63
2023-05-10T09:06:08.122Z,101410.67
2023-05-10T09:08:35.445Z,101406.65
2023-05-10T09:11:02.842Z,101409.09
2023-05-10T09:13:29.841Z,101408.20
2023-05-10T09:15:57.648Z,101406.89
2023-05-10T09:18:28.195Z,101404.39
2023-05-10T09:20:55.700Z,101401.48
2023-05-10T09:23:22.739Z,101407.99
2023-05-10T09:26:03.994Z,101409.76
2023-05-10T09:29:00.638Z,101406.30
2023-05-10T09:31:52.302Z,101404.42
2023-05-10T09:34:20.087Z,101399.06
2023-05-10T09:37:02.114Z,101398.47
2023-05-10T09:39:38.791Z,101395.21
2023-05-10T09:42:07.247Z,101395.77
2023-05-10T09:44:34.583Z,101394.77
2023-05-10T09:47:02.500Z,101394.83
2023-05-10T09:49:30.037Z,101394.64
2023-05-10T09:52:07.637Z,101392.53
2023-05-10T09:54:35.284Z,101393.27
2023-05-10T09:57:02.254Z,101393.35
2023-05-10T09:59:29.880Z,101388.82
2023-05-10T10:02:01.615Z,101389.55
2023-05-10T10:04:30.685Z,101386.66
2023-05-10T10:07:05.005Z,101383.48
2023-05-10T10:09:32.644Z,101382.36
2023-05-10T10:12:01.152Z,101382.36
2023-05-10T10:14:28.194Z,101381.36
2023-05-10T10:17:05.915Z,101376.42
2023-05-10T10:19:36.771Z,101372.75
2023-05-10T10:22:04.323Z,101378.44
2023-05-10T10:24:31.393Z,101371.26
2023-05-10T10:27:05.820Z,101373.70
2023-05-10T10:29:38.214Z,101374.14
2023-05-10T10:32:08.229Z,101370.86
2023-05-10T10:34:35.291Z,101369.23
2023-05-10T10:37:06.764Z,101366.42
2023-05-10T10:39:33.729Z,101365.64
2023-05-10T10:42:01.174Z,101368.76
2023-05-10T10:44:36.132Z,101366.16
2023-05-10T10:47:13.032Z,101362.79
2023-05-10T10:49:45.673Z,101362.23
2023-05-10T10:52:34.552Z,101357.39
2023-05-10T10:55:11.857Z,101352.46
2023-05-10T10:58:01.907Z,101353.80
2023-05-10T11:00:29.469Z,101350.09
2023-05-10T11:03:19.900Z,101348.03
2023-05-10T11:05:50.563Z,101347.63
2023-05-10T11:08:27.926Z,101345.08
2023-05-10T11:11:01.287Z,101348.52
2023-05-10T11:13:51.399Z,101347.66
2023-05-10T11:16:20.772Z,101349.17
2023-05-10T11:18:55.095Z,101348.24
2023-05-10T11:21:22.430Z,101348.85
2023-05-10T11:23:51.731Z,101349.40
2023-05-10T11:26:19.469Z,101344.79
2023-05-10T11:28:49.905Z,101343.81
2023-05-10T11:31:17.930Z,101344.55
2023-05-10T11:33:49.573Z,101338.77
2023-05-10T11:36:24.285Z,101338.73
2023-05-10T11:38:51.213Z,101338.86
2023-05-10T11:41:19.437Z,101337.38
2023-05-10T11:43:53.898Z,101335.59
2023-05-10T11:46:22.569Z,101334.88
2023-05-10T11:48:54.062Z,101332.67
2023-05-10T11:51:22.066Z,101338.38
2023-05-10T11:53:50.115Z,101337.01
2023-05-10T11:56:17.047Z,101334.02
2023-05-10T11:58:44.057Z,101332.58
2023-05-10T12:01:11.719Z,101335.11
2023-05-10T12:03:39.504Z,101331.20
2023-05-10T12:06:07.858Z,101332.21
2023-05-10T12:08:34.831Z,101332.14
2023-05-10T12:11:06.634Z,101334.41
2023-05-10T12:13:33.617Z,101334.14
2023-05-10T12:16:00.913Z,101338.08
2023-05-10T12:18:27.984Z,101339.80
2023-05-10T12:20:54.985Z,101335.02
2023-05-10T12:23:22.150Z,101336.77
2023-05-10T12:25:49.125Z,101337.88
2023-05-10T12:28:16.087Z,101337.45
2023-05-10T12:30:43.102Z,101339.09
2023-05-10T12:33:11.159Z,101340.08
2023-05-10T12:35:46.605Z,101337.50
2023-05-10T12:38:36.638Z,101339.66
2023-05-10T12:41:08.428Z,101336.23
2023-05-10T12:43:35.821Z,101339.47
2023-05-10T12:46:07.548Z,101338.71
2023-05-10T12:48:35.195Z,101339.59
2023-05-10T12:51:03.034Z,101341.82
2023-05-10T12:53:30.189Z,101344.26
2023-05-10T12:55:57.361Z,101344.23
2023-05-10T12:58:35.062Z,101342.71
2023-05-10T13:01:04.062Z,101343.47
2023-05-10T13:03:31.606Z,101340.55
2023-05-10T13:05:58.565Z,101340.11
2023-05-10T13:08:26.104Z,101334.21
2023-05-10T13:10:53.114Z,101331.97
2023-05-10T13:13:20.107Z,101331.86
2023-05-10T13:15:47.056Z,101328.39
2023-05-10T13:18:14.575Z,101327.92
2023-05-10T13:20:41.756Z,101322.66
2023-05-10T13:23:08.689Z,101323.40
2023-05-10T13:25:35.782Z,101321.84
2023-05-10T13:28:03.123Z,101323.14
2023-05-10T13:30:30.148Z,101316.55
2023-05-10T13:32:57.359Z,101315.31
2023-05-10T13:35:24.595Z,101315.20
2023-05-10T13:37:51.615Z,101313.33
2023-05-10T13:40:18.957Z,101309.98
2023-05-10T13:42:46.501Z,101305.52
2023-05-10T13:45:14.433Z,101308.60
2023-05-10T13:47:42.205Z,101312.36
2023-05-10T13:50:09.384Z,101306.92
2023-05-10T13:52:37.318Z,101308.26
2023-05-10T13:55:04.728Z,101303.92
2023-05-10T13:57:31.783Z,101305.11
2023-05-10T13:59:58.725Z,101302.14
2023-05-10T14:02:26.953Z,101302.64
2023-05-10T14:04:54.008Z,101300.48
2023-05-10T14:07:21.206Z,101305.52
2023-05-10T14:09:49.035Z,101301.66
2023-05-10T14:12:16.443Z,101301.95
2023-05-10T14:14:43.482Z,101302.73
2023-05-10T14:17:12.410Z,101300.25
2023-05-10T14:19:40.072Z,101301.16
2023-05-10T14:22:08.380Z,101297.98
2023-05-10T14:24:35.480Z,101298.59
2023-05-10T14:27:02.469Z,101302.31
2023-05-10T14:29:29.466Z,101298.45
2023-05-10T14:31:56.804Z,101292.77
2023-05-10T14:34:25.109Z,101288.79
2023-05-10T14:36:52.090Z,101290.40
2023-05-10T14:39:19.338Z,101287.79
2023-05-10T14:41:46.804Z,101291.05
2023-05-10T14:44:14.265Z,101287.15
2023-05-10T14:46:41.386Z,101282.83
2023-05-10T14:49:12.166Z,101284.44
2023-05-10T14:51:39.084Z,101283.42
2023-05-10T14:54:06.068Z,101285.83
2023-05-10T14:56:33.058Z,101285.08
2023-05-10T14:59:01.262Z,101278.17
2023-05-10T15:01:28.917Z,101280.44
2023-05-10T15:03:56.420Z,101281.36
2023-05-10T15:06:32.657Z,101275.45
2023-05-10T15:08:59.630Z,101277.02
2023-05-10T15:11:27.030Z,101273.02
2023-05-10T15:13:54.416Z,101271.67
2023-05-10T15:16:21.582Z,101273.52
2023-05-10T15:18:49.333Z,101277.31
2023-05-10T15:21:16.500Z,101278.20
2023-05-10T15:23:43.461Z,101283.78
2023-05-10T15:26:10.393Z,101274.52
2023-05-10T15:28:39.085Z,101272.65
2023-05-10T15:31:06.482Z,101276.64
2023-05-10T15:33:33.750Z,101275.25
2023-05-10T15:36:00.803Z,101278.38
2023-05-10T15:38:27.742Z,101282.70
2023-05-10T15:40:57.623Z,101287.36
2023-05-10T15:43:24.618Z,101285.51
2023-05-10T15:45:51.585Z,101281.57
2023-05-10T15:48:18.551Z,101281.98
2023-05-10T15:50:46.069Z,101280.98
2023-05-10T15:53:13.694Z,101281.14
2023-05-10T15:55:40.919Z,101279.37
2023-05-10T15:58:07.972Z,101282.33
2023-05-10T16:00:34.988Z,101282.46
2023-05-10T16:03:02.258Z,101282.09
2023-05-10T16:05:33.770Z,101284.35
2023-05-10T16:08:01.874Z,101285.10
2023-05-10T16:10:28.952Z,101288.22
2023-05-10T16:12:58.010Z,101287.34
2023-05-10T16:15:25.073Z,101287.41
2023-05-10T16:17:52.323Z,101288.00
2023-05-10T16:20:19.456Z,101291.35
2023-05-10T16:22:46.464Z,101288.48
2023-05-10T16:25:13.741Z,101285.98
2023-05-10T16:27:43.207Z,101285.97
2023-05-10T16:30:13.860Z,101290.52
2023-05-10T16:32:41.083Z,101287.29
2023-05-10T16:35:08.780Z,101286.67
2023-05-10T16:37:35.976Z,101288.66
2023-05-10T16:40:03.359Z,101287.46
2023-05-10T16:42:30.782Z,101289.38
2023-05-10T16:44:58.036Z,101290.31
2023-05-10T16:47:27.039Z,101290.36
2023-05-10T16:49:54.195Z,101289.54
2023-05-10T16:52:22.005Z,101293.77
2023-05-10T16:54:49.200Z,101289.98
2023-05-10T16:57:16.285Z,101289.42
2023-05-10T16:59:43.278Z,101288.81
2023-05-10T17:02:11.256Z,101287.67
2023-05-10T17:04:38.569Z,101291.27
2023-05-10T17:07:05.533Z,101291.67
2023-05-10T17:09:33.118Z,101293.13
2023-05-10T17:12:00.090Z,101296.50
2023-05-10T17:14:27.192Z,101298.21
2023-05-10T17:16:55.271Z,101302.38
2023-05-10T17:19:24.187Z,101303.75
2023-05-10T17:21:52.755Z,101305.45
2023-05-10T17:24:20.699Z,101312.43
2023-05-10T17:26:47.637Z,101311.35
2023-05-10T17:29:14.618Z,101320.42
2023-05-10T17:31:41.828Z,101323.38
2023-05-10T17:34:08.861Z,101318.14
2023-05-10T17:36:36.224Z,101326.19
2023-05-10T17:39:03.268Z,101325.48
2023-05-10T17:41:30.168Z,101327.58
2023-05-10T17:43:57.101Z,101328.27
2023-05-10T17:46:26.533Z,101328.89
2023-05-10T17:48:53.644Z,101332.66
2023-05-10T17:51:20.756Z,101332.98
2023-05-10T17:53:47.804Z,101338.31
2023-05-10T17:56:14.820Z,101336.27
2023-05-10T17:58:42.166Z,101342.23
2023-05-10T18:01:09.224Z,101342.80
2023-05-10T18:03:36.489Z,101342.64
2023-05-10T18:06:04.556Z,101342.62
2023-05-10T18:08:33.263Z,101343.82
2023-05-10T18:11:00.531Z,101345.40
2023-05-10T18:13:27.570Z,101346.75
2023-05-10T18:15:54.532Z,101351.06
2023-05-10T18:18:21.631Z,101354.35
2023-05-10T18:20:51.106Z,101358.57
2023-05-10T18:23:18.220Z,101358.08
2023-05-10T18:25:45.480Z,101364.20
2023-05-10T18:28:12.529Z,101362.13
2023-05-10T18:30:40.774Z,101364.13
2023-05-10T18:33:11.700Z,101367.80
2023-05-10T18:35:40.308Z,101367.14
2023-05-10T18:38:09.873Z,101368.73
2023-05-10T18:40:37.066Z,101369.29
2023-05-10T18:43:04.346Z,101370.89
2023-05-10T18:45:31.692Z,101371.79
2023-05-10T18:47:58.705Z,101375.77
2023-05-10T18:50:26.450Z,101376.44
2023-05-10T18:52:53.753Z,101373.77
2023-05-10T18:55:21.750Z,101374.19
2023-05-10T18:57:49.700Z,101373.21
2023-05-10T19:00:16.796Z,101368.75
2023-05-10T19:02:44.057Z,101374.06
2023-05-10T19:05:11.181Z,101376.21
2023-05-10T19:07:38.536Z,101373.29
2023-05-10T19:10:06.368Z,101375.89
2023-05-10T19:12:33.653Z,101374.59
2023-05-10T19:15:00.876Z,101376.98
2023-05-10T19:17:28.422Z,101378.16
2023-05-10T19:19:57.486Z,101378.48
2023-05-10T19:22:35.337Z,101384.27
2023-05-10T19:25:13.160Z,101383.33
2023-05-10T19:27:40.258Z,101382.89
2023-05-10T19:30:09.171Z,101390.80
2023-05-10T19:32:37.451Z,101388.42
2023-05-10T19:35:05.062Z,101389.71
2023-05-10T19:37:32.118Z,101388.20
2023-05-10T19:39:59.168Z,101388.64
2023-05-10T19:42:52.937Z,101388.91
2023-05-10T19:45:20.428Z,101391.17
2023-05-10T19:47:47.632Z,101388.09
2023-05-10T19:50:17.000Z,101386.04
2023-05-10T19:52:48.959Z,101392.73
2023-05-10T19:55:30.024Z,101387.58
2023-05-10T19:57:57.407Z,101388.32
2023-05-10T20:00:25.391Z,101389.51
2023-05-10T20:02:52.417Z,101389.11
2023-05-10T20:05:20.470Z,101389.08
2023-05-10T20:07:47.576Z,101391.19
2023-05-10T20:10:15.607Z,101391.91
2023-05-10T20:12:51.640Z,101387.27
2023-05-10T20:15:23.028Z,101390.52
2023-05-10T20:17:51.278Z,101392.11
2023-05-10T20:20:20.133Z,101389.80
2023-05-10T20:22:48.054Z,101388.07
2023-05-10T20:25:16.026Z,101387.73
2023-05-10T20:27:43.154Z,101390.46
2023-05-10T20:30:10.531Z,101390.57
2023-05-10T20:32:37.819Z,101389.34
2023-05-10T20:35:06.016Z,101396.13
2023-05-10T20:37:34.009Z,101395.74
2023-05-10T20:40:01.203Z,101397.58
2023-05-10T20:42:28.213Z,101394.89
2023-05-10T20:44:55.195Z,101396.48
2023-05-10T20:47:23.573Z,101392.23
2023-05-10T20:49:50.563Z,101390.22
2023-05-10T20:52:17.511Z,101389.59
2023-05-10T20:54:45.501Z,101391.23
2023-05-10T20:57:15.226Z,101391.64
2023-05-10T20:59:42.255Z,101391.54
2023-05-10T21:02:09.318Z,101392.12
2023-05-10T21:04:36.791Z,101392.70
2023-05-10T21:07:03.744Z,101394.20
2023-05-10T21:09:30.708Z,101393.73
2023-05-10T21:11:58.025Z,101393.98
2023-05-10T21:14:25.051Z,101395.27
2023-05-10T21:16:52.487Z,101394.14
2023-05-10T21:19:19.630Z,101395.06
2023-05-10T21:21:46.593Z,101393.38
2023-05-10T21:24:13.868Z,101393.60
2023-05-10T21:26:41.739Z,101389.15
2023-05-10T21:29:08.981Z,101391.46
2023-05-10T21:31:35.947Z,101393.48
2023-05-10T21:34:06.878Z,101396.77
2023-05-10T21:36:33.869Z,101397.92
2023-05-10T21:39:00.855Z,101397.69
2023-05-10T21:41:28.994Z,101398.48
2023-05-10T21:43:56.698Z,101401.34
2023-05-10T21:46:23.751Z,101398.80
2023-05-10T21:48:50.984Z,101401.48
2023-05-10T21:51:18.068Z,101399.83
2023-05-10T21:53:45.044Z,101401.48
2023-05-10T21:56:12.402Z,101397.95
2023-05-10T21:58:39.393Z,101398.90
2023-05-10T22:01:06.951Z,101400.16
2023-05-10T22:03:34.317Z,101403.66
2023-05-10T22:06:01.503Z,101402.30
2023-05-10T22:08:28.587Z,101401.66
2023-05-10T22:10:55.628Z,101398.45
2023-05-10T22:13:22.585Z,101399.40
2023-05-10T22:15:50.299Z,101401.38
2023-05-10T22:18:17.310Z,101401.64
2023-05-10T22:20:45.782Z,101402.77
2023-05-10T22:23:13.262Z,101405.66
2023-05-10T22:25:40.228Z,101405.73
2023-05-10T22:28:08.143Z,101402.85
2023-05-10T22:30:35.272Z,101405.02
2023-05-10T22:33:02.970Z,101406.48
2023-05-10T22:35:30.003Z,101409.14
2023-05-10T22:37:57.011Z,101411.98
2023-05-10T22:40:24.057Z,101408.78
2023-05-10T22:42:51.104Z,101410.06
2023-05-10T22:45:18.092Z,101411.99
2023-05-10T22:47:45.097Z,101408.08
2023-05-10T22:50:12.501Z,101407.44
2023-05-10T22:52:39.617Z,101405.84
2023-05-10T22:55:07.248Z,101408.20
2023-05-10T22:57:34.347Z,101406.92
2023-05-10T23:00:01.346Z,101411.34
2023-05-10T23:02:28.332Z,101410.56
2023-05-10T23:04:55.859Z,101408.75
2023-05-10T23:07:22.906Z,101408.08
2023-05-10T23:09:49.924Z,101407.44
2023-05-10T23:12:17.107Z,101407.85
2023-05-10T23:14:46.662Z,101409.98
2023-05-10T23:17:13.983Z,101407.59
2023-05-10T23:19:40.963Z,101407.33
2023-05-10T23:22:08.589Z,101405.31
2023-05-10T23:24:36.145Z,101405.33
2023-05-10T23:27:04.009Z,101408.48
2023-05-10T23:29:32.677Z,101411.09
2023-05-10T23:31:59.668Z,101412.48
2023-05-10T23:34:26.644Z,101409.91
2023-05-10T23:36:53.607Z,101411.00
2023-05-10T23:39:20.914Z,101413.08
2023-05-10T23:41:47.995Z,101416.26
2023-05-10T23:44:15.018Z,101415.09
2023-05-10T23:46:42.038Z,101414.80
2023-05-10T23:49:09.007Z,101415.71
2023-05-10T23:51:36.157Z,101421.44
2023-05-10T23:54:03.712Z,101423.87
2023-05-10T23:56:30.684Z,101425.09
2023-05-10T23:58:57.806Z,101428.02
